X58 weather

Indiantown Airport
Indiantown, Florida, United States

Public forecast

Using degrees Fahrenheit for public forecast. Weather courtesy of forecast.io.

Closest aviation weather report (METAR) to Indiantown Airport

Closest report is Witham Field, 14.6 nm (27.0 km) NE. Retrieved 2020/08/06 09:35 UTC (21 minutes ago):

KSUA 060935Z AUTO 00000KT 10SM CLR 25/23 A3002 RMK AO2

Closest aviation forecast (TAF) to Indiantown Airport

Closest forecast is Witham Field, 14.6 nm (27.0 km) NE. Retrieved 2020/08/06 06:46 UTC (3 hours ago):

TAF KSUA 060543Z 0606/0706 00000KT P6SM SKC FM061400 14006KT P6SM SCT030 FM061600 11009KT P6SM VCTS SCT035CB SCT050 TEMPO 0617/0620 3SM TSRA BKN030CB FM070000 15005KT P6SM FEW060 SCT090 BKN150